Time;durP1;ratioP1;P1;durP2;ratioP2;P2;SDS_P1;SDS_P2;PMS_P1;PMS_P2;Temp;Humidity;BMP_temperature;BMP_pressure;BME280_temperature;BME280_humidity;BME280_pressure;Samples;Min_cycle;Max_cycle;Signal;HPM_P1;HPM_P2
2022/06/08 00:01:00;;;;;;;1.20;0.80;;;14.70;99.90;;;;;;5073382;28;20444;-49
2022/06/08 00:03:31;;;;;;;1.37;0.80;;;14.80;99.90;;;;;;5073302;28;20525;-47
2022/06/08 00:05:58;;;;;;;1.90;0.80;;;14.80;99.90;;;;;;5073522;28;20446;-45
2022/06/08 00:08:25;;;;;;;1.10;0.73;;;14.90;99.90;;;;;;5073200;28;20448;-48
2022/06/08 00:10:52;;;;;;;1.40;0.90;;;14.90;99.90;;;;;;5072971;28;20929;-45
2022/06/08 00:13:19;;;;;;;0.97;0.67;;;14.90;99.90;;;;;;5072184;28;20464;-45
2022/06/08 00:15:47;;;;;;;1.90;0.77;;;14.90;99.90;;;;;;5073203;28;20480;-46
2022/06/08 00:18:15;;;;;;;1.13;0.70;;;14.90;99.90;;;;;;5073062;28;20497;-45
2022/06/08 00:20:42;;;;;;;1.87;0.70;;;14.90;99.90;;;;;;5072709;28;20440;-48
2022/06/08 00:23:09;;;;;;;1.00;0.50;;;14.90;99.90;;;;;;5072906;28;20465;-46
2022/06/08 00:25:36;;;;;;;2.70;0.97;;;14.80;99.90;;;;;;5072646;28;20471;-48
2022/06/08 00:28:04;;;;;;;1.30;0.77;;;14.80;99.90;;;;;;5072907;28;20440;-45
2022/06/08 00:30:31;;;;;;;1.40;0.83;;;14.80;99.90;;;;;;5072566;28;20562;-50
2022/06/08 00:32:58;;;;;;;1.90;0.80;;;14.90;99.90;;;;;;5072784;28;20465;-45
2022/06/08 00:35:27;;;;;;;1.20;0.63;;;14.90;99.90;;;;;;5072384;28;20476;-46
2022/06/08 00:37:54;;;;;;;1.13;0.70;;;14.90;99.90;;;;;;5072985;28;20448;-45
2022/06/08 00:40:44;;;;;;;1.17;0.77;;;15.00;99.90;;;;;;5072643;28;20445;-46
2022/06/08 00:43:11;;;;;;;2.20;0.70;;;14.90;99.90;;;;;;5072489;28;20468;-45
2022/06/08 00:45:38;;;;;;;1.00;0.60;;;14.90;99.90;;;;;;5072503;28;20842;-46
2022/06/08 00:48:07;;;;;;;3.53;0.70;;;14.90;99.90;;;;;;5072282;28;20480;-45
2022/06/08 00:50:41;;;;;;;1.40;0.70;;;14.80;99.90;;;;;;5072333;28;20472;-45
2022/06/08 00:53:10;;;;;;;1.30;0.90;;;14.90;99.90;;;;;;5072386;28;20480;-45
2022/06/08 00:55:39;;;;;;;1.10;0.80;;;14.90;99.90;;;;;;5071845;28;20515;-44
2022/06/08 00:58:12;;;;;;;2.10;0.70;;;14.80;99.90;;;;;;5071829;28;20440;-45
2022/06/08 01:00:41;;;;;;;1.53;0.73;;;14.70;99.90;;;;;;5072015;28;20459;-46
2022/06/08 01:03:10;;;;;;;1.77;0.80;;;14.60;99.90;;;;;;5072211;28;20867;-45
2022/06/08 01:05:42;;;;;;;1.67;0.70;;;14.50;99.90;;;;;;5072205;28;20521;-48
2022/06/08 01:08:21;;;;;;;2.47;1.00;;;14.40;99.90;;;;;;5072106;28;20900;-46
2022/06/08 01:10:51;;;;;;;1.73;0.70;;;14.40;99.90;;;;;;5071757;28;20956;-45
2022/06/08 01:13:18;;;;;;;4.33;0.77;;;14.60;99.90;;;;;;5071296;28;21094;-45
2022/06/08 01:15:45;;;;;;;4.23;0.80;;;14.60;99.90;;;;;;5072047;28;20530;-45
2022/06/08 01:18:12;;;;;;;2.70;0.73;;;14.60;99.90;;;;;;5072045;28;20445;-45
2022/06/08 01:20:46;;;;;;;1.60;0.87;;;14.50;99.90;;;;;;5071654;28;20506;-45
2022/06/08 01:23:16;;;;;;;1.20;0.70;;;14.60;99.90;;;;;;5071879;28;20570;-45
2022/06/08 01:25:56;;;;;;;1.10;0.67;;;14.60;99.90;;;;;;5071575;28;20432;-47
2022/06/08 01:28:29;;;;;;;1.23;0.80;;;14.60;99.90;;;;;;5071406;28;20577;-46
2022/06/08 01:31:01;;;;;;;1.00;0.60;;;14.60;99.90;;;;;;5071603;28;20527;-48
2022/06/08 01:33:48;;;;;;;1.30;0.83;;;14.60;99.90;;;;;;5071509;28;20525;-48
2022/06/08 01:36:34;;;;;;;0.90;0.50;;;14.60;99.90;;;;;;5071763;28;20476;-45
2022/06/08 01:39:07;;;;;;;2.33;0.70;;;14.50;99.90;;;;;;5071348;28;20436;-50
2022/06/08 01:42:02;;;;;;;3.33;1.10;;;14.50;99.90;;;;;;5071534;28;20459;-45
2022/06/08 01:45:28;;;;;;;1.60;0.70;;;14.50;99.90;;;;;;5071663;28;20693;-45
2022/06/08 01:47:42;;;;;;;0.90;0.50;;;14.50;99.90;;;;;;5071256;28;20936;-45
2022/06/08 01:50:16;;;;;;;1.20;0.70;;;14.50;99.90;;;;;;5071071;28;20452;-45
2022/06/08 01:52:52;;;;;;;1.20;0.70;;;14.50;99.90;;;;;;5071217;28;20916;-44
2022/06/08 01:55:26;;;;;;;1.00;0.77;;;14.50;99.90;;;;;;5087470;22;20491;-47
2022/06/08 01:58:02;;;;;;;1.50;0.57;;;14.60;99.90;;;;;;5070840;28;20440;-47
2022/06/08 02:00:33;;;;;;;1.70;0.70;;;14.60;99.90;;;;;;5071004;28;20443;-47
2022/06/08 02:03:07;;;;;;;1.03;0.80;;;14.60;99.90;;;;;;5071269;28;20424;-47
2022/06/08 02:05:43;;;;;;;1.97;0.67;;;14.60;99.90;;;;;;5070901;28;20468;-50
2022/06/08 02:08:18;;;;;;;1.30;0.63;;;14.60;99.90;;;;;;5070688;28;20453;-47
2022/06/08 02:10:54;;;;;;;1.13;0.73;;;14.60;99.90;;;;;;5071180;28;20431;-50
2022/06/08 02:13:27;;;;;;;0.90;0.50;;;14.60;99.90;;;;;;5070568;28;20440;-48
2022/06/08 02:15:59;;;;;;;1.00;0.40;;;14.60;99.90;;;;;;5071213;28;20563;-47
2022/06/08 02:18:30;;;;;;;1.30;0.60;;;14.60;99.90;;;;;;5070780;28;20480;-47
2022/06/08 02:21:03;;;;;;;1.20;0.80;;;14.50;99.90;;;;;;5071066;28;20469;-50
2022/06/08 02:23:40;;;;;;;0.90;0.60;;;14.60;99.90;;;;;;5071029;28;20472;-49
2022/06/08 02:26:13;;;;;;;1.10;0.60;;;14.60;99.90;;;;;;5071169;28;20448;-46
2022/06/08 02:28:45;;;;;;;1.50;1.00;;;14.40;99.90;;;;;;5071121;28;20448;-48
2022/06/08 02:31:19;;;;;;;1.83;0.90;;;14.30;99.90;;;;;;5070871;28;20448;-47
2022/06/08 02:36:41;;;;;;;1.63;0.90;;;14.10;99.90;;;;;;5071010;28;20471;-48
2022/06/08 02:39:14;;;;;;;1.10;0.87;;;14.10;99.90;;;;;;5071241;28;20531;-46
2022/06/08 02:41:45;;;;;;;0.90;0.50;;;14.20;99.90;;;;;;5070528;28;20442;-47
2022/06/08 02:44:20;;;;;;;2.33;0.60;;;14.20;99.90;;;;;;5071252;28;20496;-47
2022/06/08 02:46:52;;;;;;;1.20;0.57;;;14.30;99.90;;;;;;5071074;28;20920;-48
2022/06/08 02:49:19;;;;;;;1.10;0.70;;;14.30;99.90;;;;;;5071309;28;20471;-46
2022/06/08 02:51:50;;;;;;;1.20;0.80;;;14.30;99.90;;;;;;5070785;28;20468;-47
2022/06/08 02:54:21;;;;;;;2.50;0.83;;;14.40;99.90;;;;;;5070346;28;20472;-50
2022/06/08 02:57:06;;;;;;;1.10;0.60;;;14.50;99.90;;;;;;5070520;28;20483;-49
2022/06/08 02:59:41;;;;;;;1.73;1.07;;;14.40;99.90;;;;;;5070635;28;20472;-47
2022/06/08 03:02:14;;;;;;;3.73;0.73;;;14.30;99.90;;;;;;5070739;28;20527;-47
2022/06/08 03:04:48;;;;;;;4.03;1.30;;;14.20;99.90;;;;;;5070516;28;20554;-47
2022/06/08 03:07:18;;;;;;;1.60;0.90;;;14.20;99.90;;;;;;5070691;28;20541;-49
2022/06/08 03:09:46;;;;;;;3.30;0.83;;;14.10;99.90;;;;;;5070406;28;20445;-49
2022/06/08 03:12:20;;;;;;;2.07;0.93;;;14.10;99.90;;;;;;5070235;28;20480;-47
2022/06/08 03:14:48;;;;;;;1.53;0.60;;;14.10;99.90;;;;;;5070168;28;20541;-47
2022/06/08 03:17:17;;;;;;;1.37;0.80;;;14.20;99.90;;;;;;5070620;28;20448;-47
2022/06/08 03:19:45;;;;;;;1.70;1.00;;;14.30;99.90;;;;;;5074216;28;20444;-47
2022/06/08 03:22:16;;;;;;;1.10;0.60;;;14.30;99.90;;;;;;5074188;28;20485;-47
2022/06/08 03:24:43;;;;;;;1.10;0.87;;;14.30;99.90;;;;;;5074075;28;20734;-47
2022/06/08 03:27:10;;;;;;;2.50;0.80;;;14.30;99.90;;;;;;5073999;28;20523;-47
2022/06/08 03:29:39;;;;;;;0.90;0.43;;;14.30;99.90;;;;;;5073891;28;20446;-46
2022/06/08 03:32:07;;;;;;;1.30;0.70;;;14.30;99.90;;;;;;5074032;28;20526;-48
2022/06/08 03:34:34;;;;;;;1.37;0.80;;;14.30;99.90;;;;;;5073803;28;20464;-50
2022/06/08 03:37:02;;;;;;;1.53;0.83;;;14.30;99.90;;;;;;5074227;28;20525;-48
2022/06/08 03:39:29;;;;;;;1.27;1.00;;;14.30;99.90;;;;;;5073519;28;20436;-47
2022/06/08 03:41:56;;;;;;;1.50;0.90;;;14.30;99.90;;;;;;5073944;28;20529;-47
2022/06/08 03:44:23;;;;;;;1.30;0.80;;;14.30;99.90;;;;;;5073709;28;20984;-47
2022/06/08 03:46:55;;;;;;;2.07;1.30;;;14.20;99.90;;;;;;5073860;28;20440;-47
2022/06/08 03:49:25;;;;;;;1.70;0.80;;;14.00;99.90;;;;;;5073458;28;20468;-47
2022/06/08 03:51:55;;;;;;;1.40;0.80;;;14.00;99.90;;;;;;5073771;28;20959;-47
2022/06/08 03:54:26;;;;;;;1.33;0.83;;;14.00;99.90;;;;;;5073658;28;20574;-47
2022/06/08 03:56:56;;;;;;;1.47;0.77;;;14.10;99.90;;;;;;5073421;28;20480;-47
2022/06/08 03:59:24;;;;;;;2.17;0.90;;;14.20;99.90;;;;;;5073161;28;20953;-50
2022/06/08 04:01:53;;;;;;;3.83;1.23;;;14.20;99.90;;;;;;5073860;28;20925;-46
2022/06/08 04:04:20;;;;;;;1.57;0.97;;;14.20;99.90;;;;;;5073761;28;20899;-49
2022/06/08 04:06:47;;;;;;;1.30;0.60;;;14.20;99.90;;;;;;5073265;28;20921;-47
2022/06/08 04:09:14;;;;;;;1.00;0.80;;;14.30;99.90;;;;;;5073095;28;20480;-50
2022/06/08 04:11:41;;;;;;;2.23;0.80;;;14.20;99.90;;;;;;5073037;28;21066;-47
2022/06/08 04:14:08;;;;;;;2.33;0.90;;;14.10;99.90;;;;;;5073185;28;20526;-47
2022/06/08 04:16:35;;;;;;;2.63;0.80;;;14.00;99.90;;;;;;5072924;28;21023;-48
2022/06/08 04:19:03;;;;;;;1.30;0.70;;;13.70;99.90;;;;;;5073046;28;20468;-47
2022/06/08 04:21:31;;;;;;;2.20;0.77;;;13.60;99.90;;;;;;5073492;28;20502;-47
2022/06/08 04:24:00;;;;;;;1.40;0.83;;;13.60;99.90;;;;;;5073049;28;20456;-47
2022/06/08 04:26:28;;;;;;;1.30;0.93;;;13.80;99.90;;;;;;5072914;28;20828;-47
2022/06/08 04:28:55;;;;;;;2.90;1.03;;;13.80;99.90;;;;;;5071913;28;20441;-50
2022/06/08 04:31:22;;;;;;;1.30;1.10;;;13.80;99.90;;;;;;5072351;28;20472;-48
2022/06/08 04:33:53;;;;;;;6.40;1.60;;;13.70;99.90;;;;;;5072917;28;20468;-49
2022/06/08 04:36:22;;;;;;;1.00;0.80;;;13.60;99.90;;;;;;5072915;28;20572;-47
2022/06/08 04:38:49;;;;;;;2.00;0.90;;;13.60;99.90;;;;;;5072211;28;20440;-48
2022/06/08 04:41:16;;;;;;;1.40;1.30;;;13.60;99.90;;;;;;5072704;28;20476;-50
2022/06/08 04:43:43;;;;;;;1.67;0.80;;;13.50;99.90;;;;;;5072419;28;20463;-47
2022/06/08 04:46:15;;;;;;;1.80;0.93;;;13.60;99.90;;;;;;5072885;28;20528;-50
2022/06/08 04:48:42;;;;;;;1.70;0.87;;;13.70;99.90;;;;;;5072472;28;20453;-50
2022/06/08 04:51:10;;;;;;;1.40;0.80;;;13.80;99.90;;;;;;5072780;28;20444;-47
2022/06/08 04:53:39;;;;;;;3.50;1.20;;;13.80;99.90;;;;;;5072748;28;20464;-48
2022/06/08 04:56:06;;;;;;;1.63;0.80;;;14.00;99.90;;;;;;5072454;28;20847;-47
2022/06/08 04:58:34;;;;;;;2.00;1.10;;;14.00;99.90;;;;;;5071948;28;20533;-48
2022/06/08 05:01:02;;;;;;;1.13;0.67;;;14.20;99.90;;;;;;5072242;28;20445;-50
2022/06/08 05:03:30;;;;;;;1.07;0.60;;;14.20;99.90;;;;;;5072459;28;20476;-47
2022/06/08 05:05:58;;;;;;;1.00;0.50;;;14.30;99.90;;;;;;5072292;28;20445;-46
2022/06/08 05:08:26;;;;;;;2.30;0.80;;;14.30;99.90;;;;;;5072127;28;20444;-47
2022/06/08 05:10:57;;;;;;;1.20;0.80;;;14.30;99.90;;;;;;5071983;28;20498;-48
2022/06/08 05:13:24;;;;;;;3.00;1.13;;;14.30;99.90;;;;;;5071459;28;20519;-48
2022/06/08 05:15:51;;;;;;;1.73;0.70;;;14.30;99.90;;;;;;5071895;28;21003;-47
2022/06/08 05:18:20;;;;;;;1.93;0.93;;;14.30;99.90;;;;;;5071898;28;20797;-47
2022/06/08 05:20:48;;;;;;;1.60;1.37;;;14.40;99.90;;;;;;5071842;28;20448;-47
2022/06/08 05:23:20;;;;;;;1.27;1.13;;;14.50;99.90;;;;;;5071736;28;20501;-47
2022/06/08 05:25:47;;;;;;;1.90;1.37;;;14.50;99.90;;;;;;5071985;28;20444;-48
2022/06/08 05:28:16;;;;;;;1.67;1.10;;;14.60;99.90;;;;;;5071842;28;20882;-49
2022/06/08 05:30:44;;;;;;;2.07;1.03;;;14.60;99.90;;;;;;5071736;28;20444;-47
2022/06/08 05:33:12;;;;;;;1.87;0.97;;;14.60;99.90;;;;;;5071821;28;20441;-47
2022/06/08 05:35:40;;;;;;;1.43;1.33;;;14.70;99.90;;;;;;5071490;28;20529;-48
2022/06/08 05:38:07;;;;;;;1.70;1.10;;;14.70;99.90;;;;;;5071406;28;20476;-47
2022/06/08 05:40:37;;;;;;;1.50;0.80;;;14.60;99.90;;;;;;5071678;28;20444;-47
2022/06/08 05:43:05;;;;;;;1.40;0.80;;;14.50;99.90;;;;;;5071579;28;20444;-47
2022/06/08 05:45:34;;;;;;;1.17;0.80;;;14.50;99.90;;;;;;5071477;28;20468;-47
2022/06/08 05:48:01;;;;;;;1.60;0.90;;;14.60;99.90;;;;;;5071559;28;20856;-51
2022/06/08 05:50:29;;;;;;;2.20;1.00;;;14.60;99.90;;;;;;5071184;28;20475;-49
2022/06/08 05:52:56;;;;;;;2.60;1.17;;;14.70;99.90;;;;;;5071543;28;20502;-47
2022/06/08 05:55:24;;;;;;;2.90;0.90;;;14.80;99.90;;;;;;5071069;28;20518;-47
2022/06/08 05:57:52;;;;;;;1.47;1.00;;;14.90;99.90;;;;;;5071200;28;20537;-47
2022/06/08 06:00:22;;;;;;;1.23;0.73;;;14.90;99.90;;;;;;5071013;28;20440;-48
2022/06/08 06:02:50;;;;;;;1.80;1.27;;;15.00;99.90;;;;;;5071387;28;20493;-48
2022/06/08 06:05:20;;;;;;;2.10;1.00;;;15.20;99.90;;;;;;5071722;28;20518;-47
2022/06/08 06:07:47;;;;;;;1.23;0.90;;;15.50;99.90;;;;;;5071352;28;20440;-47
2022/06/08 06:10:16;;;;;;;1.10;0.83;;;15.90;99.90;;;;;;5071133;28;20476;-47
2022/06/08 06:12:43;;;;;;;1.27;0.80;;;15.90;99.90;;;;;;5070744;28;20526;-47
2022/06/08 06:15:12;;;;;;;1.60;0.80;;;16.00;99.90;;;;;;5070997;28;20875;-48
2022/06/08 06:17:39;;;;;;;1.70;1.30;;;16.00;99.90;;;;;;5070982;28;20512;-46
2022/06/08 06:20:09;;;;;;;2.13;1.07;;;15.90;99.90;;;;;;5070863;28;20925;-48
2022/06/08 06:22:37;;;;;;;1.27;0.90;;;15.90;99.90;;;;;;5071231;28;20436;-49
2022/06/08 06:25:05;;;;;;;1.80;0.90;;;15.90;99.90;;;;;;5070859;28;20906;-47
2022/06/08 06:27:33;;;;;;;1.30;1.00;;;15.70;99.90;;;;;;5071119;28;20444;-48
2022/06/08 06:30:00;;;;;;;1.53;0.70;;;15.60;99.90;;;;;;5070910;28;20448;-47
2022/06/08 06:32:30;;;;;;;1.73;1.27;;;15.60;99.90;;;;;;5070975;28;20932;-48
2022/06/08 06:34:58;;;;;;;1.20;0.80;;;15.60;99.90;;;;;;5070988;28;21057;-48
2022/06/08 06:37:28;;;;;;;3.10;0.80;;;15.60;99.90;;;;;;5070785;28;20845;-47
2022/06/08 06:39:55;;;;;;;1.10;0.83;;;15.50;99.90;;;;;;5070631;28;20487;-47
2022/06/08 06:42:24;;;;;;;3.30;0.77;;;15.60;99.90;;;;;;5071029;28;20506;-47
2022/06/08 06:44:52;;;;;;;1.70;1.10;;;15.60;99.90;;;;;;5070857;28;20467;-47
2022/06/08 06:47:19;;;;;;;1.00;0.67;;;15.60;99.90;;;;;;5071062;28;20440;-47
2022/06/08 06:49:46;;;;;;;1.30;1.13;;;15.70;99.90;;;;;;5070595;28;20941;-48
2022/06/08 06:52:14;;;;;;;1.40;1.00;;;15.70;99.90;;;;;;5070699;28;20445;-48
2022/06/08 06:54:43;;;;;;;1.47;1.10;;;15.80;99.90;;;;;;5074785;28;20500;-47
2022/06/08 06:57:10;;;;;;;1.70;1.20;;;15.90;99.90;;;;;;5074737;28;20536;-50
2022/06/08 06:59:38;;;;;;;1.27;0.60;;;15.90;99.90;;;;;;5074501;28;20436;-48
2022/06/08 07:02:10;;;;;;;2.07;1.00;;;15.70;99.90;;;;;;5074613;28;20448;-46
2022/06/08 07:04:37;;;;;;;1.70;1.00;;;15.70;99.90;;;;;;5074486;28;20510;-48
2022/06/08 07:07:05;;;;;;;1.30;0.70;;;15.90;99.90;;;;;;5074285;28;20545;-47
2022/06/08 07:09:32;;;;;;;1.47;1.03;;;15.90;99.90;;;;;;5074098;28;20522;-47
2022/06/08 07:12:00;;;;;;;1.77;0.90;;;16.00;99.90;;;;;;5074266;28;20460;-48
2022/06/08 07:14:28;;;;;;;2.07;0.90;;;16.00;99.90;;;;;;5073942;28;20506;-51
2022/06/08 07:16:55;;;;;;;1.33;0.77;;;15.90;99.90;;;;;;5074580;28;20499;-47
2022/06/08 07:19:22;;;;;;;1.20;0.90;;;16.10;99.90;;;;;;5074189;28;20855;-47
2022/06/08 07:21:49;;;;;;;1.40;1.03;;;16.40;99.90;;;;;;5074104;28;20452;-47
2022/06/08 07:24:19;;;;;;;1.50;0.97;;;16.80;99.90;;;;;;5074378;28;20451;-48
2022/06/08 07:26:46;;;;;;;1.10;0.80;;;17.30;99.90;;;;;;5074123;28;20444;-48
2022/06/08 07:29:14;;;;;;;1.30;1.00;;;17.50;99.90;;;;;;5073630;28;20521;-48
2022/06/08 07:31:42;;;;;;;2.30;1.07;;;17.60;99.90;;;;;;5074071;28;20475;-47
2022/06/08 07:34:11;;;;;;;2.30;0.90;;;17.40;99.90;;;;;;5074062;28;20560;-47
2022/06/08 07:36:37;;;;;;;1.20;0.87;;;17.20;99.90;;;;;;5074287;28;20471;-47
2022/06/08 07:39:05;;;;;;;1.60;0.80;;;16.90;99.90;;;;;;5073664;28;21011;-47
2022/06/08 07:41:32;;;;;;;2.37;1.20;;;16.60;99.90;;;;;;5073874;28;20464;-47
2022/06/08 07:43:59;;;;;;;2.33;0.67;;;16.40;99.90;;;;;;5073718;28;20486;-48
2022/06/08 07:46:29;;;;;;;1.30;0.90;;;16.30;99.90;;;;;;5073911;28;20497;-48
2022/06/08 07:51:41;;;;;;;3.20;1.20;;;16.10;99.90;;;;;;5073749;28;20420;-47
2022/06/08 07:54:08;;;;;;;1.80;0.93;;;16.10;99.90;;;;;;5129787;22;20980;-49
2022/06/08 07:56:36;;;;;;;1.57;0.80;;;16.10;99.90;;;;;;5073200;28;20445;-47
2022/06/08 07:59:03;;;;;;;2.13;0.90;;;16.10;99.90;;;;;;5073169;28;20483;-47
2022/06/08 08:01:32;;;;;;;2.60;1.17;;;16.30;99.90;;;;;;5073992;28;20531;-47
2022/06/08 08:04:01;;;;;;;1.87;1.03;;;16.50;99.90;;;;;;5073029;28;20459;-47
2022/06/08 08:06:28;;;;;;;1.10;0.97;;;16.80;99.90;;;;;;5073510;28;20445;-47
2022/06/08 08:08:55;;;;;;;2.13;0.90;;;17.10;99.90;;;;;;5072881;28;20448;-46
2022/06/08 08:11:26;;;;;;;1.30;0.80;;;17.20;99.90;;;;;;5073282;28;20873;-49
2022/06/08 08:13:53;;;;;;;2.10;1.20;;;17.10;99.90;;;;;;5073215;28;21004;-47
2022/06/08 08:16:20;;;;;;;1.97;1.00;;;16.90;99.90;;;;;;5073319;28;20476;-47
2022/06/08 08:18:49;;;;;;;2.10;1.03;;;17.00;99.90;;;;;;5072762;28;20502;-46
2022/06/08 08:21:16;;;;;;;1.60;1.00;;;16.70;99.90;;;;;;5073382;28;20841;-47
2022/06/08 08:23:43;;;;;;;1.90;1.20;;;16.90;99.90;;;;;;5073111;28;20436;-46
2022/06/08 08:26:10;;;;;;;1.77;1.13;;;16.90;99.90;;;;;;5073059;28;20935;-46
2022/06/08 08:28:37;;;;;;;1.90;1.07;;;16.90;99.90;;;;;;5072814;28;20848;-46
2022/06/08 08:31:03;;;;;;;1.07;0.80;;;17.00;99.90;;;;;;5072694;28;20493;-49
2022/06/08 08:33:30;;;;;;;1.27;0.73;;;17.00;99.90;;;;;;5072711;28;20528;-48
2022/06/08 08:35:59;;;;;;;1.40;0.83;;;17.00;99.90;;;;;;5072695;28;20460;-46
2022/06/08 08:38:26;;;;;;;1.63;1.00;;;17.40;99.90;;;;;;5072585;28;20538;-46
2022/06/08 08:40:57;;;;;;;3.10;0.80;;;17.50;99.90;;;;;;5072637;28;20862;-47
2022/06/08 08:43:26;;;;;;;1.20;0.80;;;17.80;99.90;;;;;;5072534;28;20932;-46
2022/06/08 08:46:19;;;;;;;6.10;1.00;;;17.70;99.90;;;;;;5072725;28;20456;-49
2022/06/08 08:48:52;;;;;;;1.30;1.00;;;18.00;99.90;;;;;;5072362;28;20440;-43
2022/06/08 08:51:25;;;;;;;1.47;0.80;;;18.20;99.90;;;;;;5072765;28;20490;-47
2022/06/08 08:54:14;;;;;;;1.27;1.10;;;18.30;99.90;;;;;;5070150;28;20472;-45
2022/06/08 08:56:42;;;;;;;1.60;0.83;;;18.40;99.90;;;;;;5071675;28;20787;-47
2022/06/08 08:59:15;;;;;;;1.43;0.90;;;18.40;99.90;;;;;;5071022;28;20445;-49
2022/06/08 09:01:45;;;;;;;1.30;1.00;;;18.30;99.90;;;;;;5071377;28;20455;-46
2022/06/08 09:04:21;;;;;;;1.10;0.80;;;18.20;99.90;;;;;;5071294;28;20511;-47
2022/06/08 09:06:50;;;;;;;1.50;1.10;;;18.30;99.90;;;;;;5071665;28;20468;-50
2022/06/08 09:09:21;;;;;;;1.20;0.60;;;18.20;99.90;;;;;;5071828;28;20440;-46
2022/06/08 09:11:48;;;;;;;1.27;0.87;;;18.30;99.90;;;;;;5070900;28;20433;-46
2022/06/08 09:14:19;;;;;;;3.13;1.07;;;18.30;99.90;;;;;;5070755;28;20499;-47
2022/06/08 09:16:48;;;;;;;1.67;0.90;;;18.40;99.90;;;;;;5070246;28;20440;-46
2022/06/08 09:19:31;;;;;;;1.70;1.30;;;18.50;99.90;;;;;;5070725;28;20490;-51
2022/06/08 09:22:24;;;;;;;1.50;0.90;;;18.60;99.90;;;;;;5070825;28;20478;-47
2022/06/08 09:24:54;;;;;;;2.70;1.50;;;18.80;99.90;;;;;;5070780;28;20806;-46
2022/06/08 09:27:24;;;;;;;1.60;1.20;;;18.90;99.90;;;;;;5070478;28;20926;-46
2022/06/08 09:29:56;;;;;;;1.23;0.87;;;19.00;99.90;;;;;;5070739;28;20525;-50
2022/06/08 09:32:33;;;;;;;1.20;0.90;;;19.10;99.90;;;;;;5071108;28;20444;-46
2022/06/08 09:35:05;;;;;;;1.50;0.90;;;19.10;99.90;;;;;;5071034;28;20460;-46
2022/06/08 09:37:34;;;;;;;3.83;1.10;;;19.10;99.90;;;;;;5071634;28;20508;-47
2022/06/08 09:40:02;;;;;;;1.53;1.00;;;19.20;99.90;;;;;;5071025;28;20493;-46
2022/06/08 09:42:49;;;;;;;1.67;1.00;;;19.40;99.90;;;;;;5072012;28;20440;-46
2022/06/08 09:45:32;;;;;;;1.73;0.90;;;19.70;99.90;;;;;;5071162;28;20472;-44
2022/06/08 09:51:26;;;;;;;1.30;0.83;;;19.70;99.90;;;;;;5070939;28;20419;-48
2022/06/08 09:54:02;;;;;;;1.47;1.00;;;19.80;99.90;;;;;;5071133;28;20543;-51
2022/06/08 09:56:40;;;;;;;2.03;1.60;;;19.90;99.90;;;;;;5071338;28;20473;-50
2022/06/08 09:59:25;;;;;;;1.53;1.00;;;20.10;99.90;;;;;;5070927;28;20476;-48
2022/06/08 10:01:58;;;;;;;1.20;0.73;;;20.10;99.90;;;;;;5071425;28;20486;-47
2022/06/08 10:04:40;;;;;;;2.40;1.30;;;20.10;99.90;;;;;;5071342;28;20488;-47
2022/06/08 10:07:14;;;;;;;1.90;1.00;;;20.30;99.90;;;;;;5071103;28;20480;-46
2022/06/08 10:09:59;;;;;;;1.77;1.03;;;20.30;99.90;;;;;;5071246;28;20514;-45
2022/06/08 10:12:37;;;;;;;3.70;1.63;;;20.30;99.90;;;;;;5070875;28;21010;-47
2022/06/08 10:15:14;;;;;;;2.50;1.30;;;20.40;99.90;;;;;;5071101;28;20468;-46
2022/06/08 10:17:44;;;;;;;2.80;1.60;;;20.40;99.90;;;;;;5071038;28;20882;-47
2022/06/08 10:20:17;;;;;;;1.43;0.93;;;20.40;99.90;;;;;;5071103;28;20494;-47
2022/06/08 10:22:49;;;;;;;1.33;0.90;;;20.40;99.90;;;;;;5071009;28;20472;-46
2022/06/08 10:25:22;;;;;;;2.20;1.00;;;20.40;99.90;;;;;;5070814;28;20459;-46
2022/06/08 10:27:53;;;;;;;1.97;1.00;;;20.50;99.90;;;;;;5071619;28;20472;-49
2022/06/08 10:30:28;;;;;;;1.60;1.10;;;20.60;99.90;;;;;;5075039;28;20447;-46
2022/06/08 10:33:00;;;;;;;2.73;1.47;;;20.60;99.90;;;;;;5075207;28;20482;-48
2022/06/08 10:35:32;;;;;;;1.67;1.37;;;20.70;99.90;;;;;;5074047;28;20528;-46
2022/06/08 10:38:00;;;;;;;1.73;0.80;;;20.60;99.90;;;;;;5075009;28;20586;-47
2022/06/08 10:40:37;;;;;;;4.63;2.80;;;20.60;99.90;;;;;;5074634;28;20444;-46
2022/06/08 10:43:04;;;;;;;2.03;1.20;;;20.60;99.90;;;;;;5074953;28;20932;-46
2022/06/08 10:45:45;;;;;;;1.80;0.90;;;20.70;99.90;;;;;;5075017;28;20460;-47
2022/06/08 10:48:35;;;;;;;2.27;1.10;;;20.70;99.90;;;;;;5074703;28;20439;-49
2022/06/08 10:51:37;;;;;;;2.03;0.80;;;20.80;99.90;;;;;;5074337;28;20506;-47
2022/06/08 10:57:43;;;;;;;1.57;1.17;;;20.80;99.90;;;;;;5074845;28;20494;-46
2022/06/08 11:00:25;;;;;;;1.10;0.70;;;20.80;99.90;;;;;;5074310;28;20531;-47
2022/06/08 11:02:56;;;;;;;1.30;0.90;;;20.80;99.90;;;;;;5074282;28;20448;-46
2022/06/08 11:05:33;;;;;;;1.70;1.27;;;20.70;99.90;;;;;;5074632;28;20930;-47
2022/06/08 11:08:20;;;;;;;1.20;0.80;;;20.70;99.90;;;;;;5074458;28;20497;-50
2022/06/08 11:11:01;;;;;;;1.70;0.80;;;20.70;99.90;;;;;;5074238;28;20475;-46
2022/06/08 11:13:36;;;;;;;2.43;0.70;;;20.60;99.90;;;;;;5074276;28;20505;-46
2022/06/08 11:16:11;;;;;;;1.03;0.63;;;20.60;99.90;;;;;;5074325;28;20501;-46
2022/06/08 11:18:43;;;;;;;1.20;0.70;;;20.70;99.90;;;;;;5074282;28;20554;-47
2022/06/08 11:21:41;;;;;;;1.73;0.93;;;20.80;99.90;;;;;;5074101;28;20988;-46
2022/06/08 11:24:19;;;;;;;5.93;1.40;;;20.80;99.90;;;;;;5073917;28;20492;-46
2022/06/08 11:27:12;;;;;;;1.43;0.93;;;20.90;99.90;;;;;;5074179;28;20452;-46
2022/06/08 11:29:47;;;;;;;2.10;0.70;;;21.00;99.90;;;;;;5073814;28;20517;-48
2022/06/08 11:32:27;;;;;;;3.27;1.00;;;21.10;99.90;;;;;;5074345;28;20910;-46
2022/06/08 11:35:09;;;;;;;2.13;1.07;;;21.10;99.90;;;;;;5074332;28;20859;-46
2022/06/08 11:37:48;;;;;;;1.23;0.80;;;21.10;99.90;;;;;;5073483;28;21025;-47
2022/06/08 11:40:25;;;;;;;5.00;1.17;;;21.10;99.90;;;;;;5072892;28;20505;-47
2022/06/08 11:42:56;;;;;;;4.03;1.63;;;21.10;99.90;;;;;;5073862;28;20436;-46
2022/06/08 11:45:35;;;;;;;4.90;2.33;;;21.20;99.90;;;;;;5073872;28;20464;-46
2022/06/08 11:48:13;;;;;;;1.83;1.00;;;21.20;99.90;;;;;;5073855;28;20947;-46
2022/06/08 11:50:43;;;;;;;2.33;1.03;;;21.20;99.90;;;;;;5073501;28;20937;-47
2022/06/08 11:53:17;;;;;;;2.13;1.13;;;21.30;99.90;;;;;;5073963;28;20441;-46
2022/06/08 11:55:51;;;;;;;3.60;1.50;;;21.20;99.90;;;;;;5073561;28;20504;-47
2022/06/08 11:58:23;;;;;;;2.63;1.10;;;21.30;99.90;;;;;;5073124;28;20965;-46
2022/06/08 12:00:57;;;;;;;2.30;1.30;;;21.30;99.90;;;;;;5073259;28;20472;-46
2022/06/08 12:03:35;;;;;;;1.63;0.80;;;21.40;99.90;;;;;;5073605;28;20597;-47
2022/06/08 12:06:07;;;;;;;2.10;0.93;;;21.40;99.90;;;;;;5073675;28;20501;-46
2022/06/08 12:08:39;;;;;;;1.87;1.00;;;21.40;99.90;;;;;;5073368;28;20933;-46
2022/06/08 12:11:07;;;;;;;2.50;1.33;;;21.50;99.90;;;;;;5072784;28;20455;-47
2022/06/08 12:13:34;;;;;;;2.17;1.27;;;21.50;99.90;;;;;;5072901;28;20464;-49
2022/06/08 12:16:20;;;;;;;3.73;1.40;;;21.50;99.90;;;;;;5073132;28;20461;-43
2022/06/08 12:18:54;;;;;;;4.90;1.63;;;21.50;99.90;;;;;;5072691;28;21023;-48
2022/06/08 12:21:28;;;;;;;10.97;2.20;;;21.50;99.90;;;;;;5073439;28;20582;-46
2022/06/08 12:24:19;;;;;;;3.50;1.80;;;21.50;99.90;;;;;;5073138;28;20444;-51
2022/06/08 12:26:57;;;;;;;5.57;1.80;;;21.60;99.90;;;;;;5072911;28;20896;-47
2022/06/08 12:29:29;;;;;;;3.37;1.50;;;21.60;99.90;;;;;;5072756;28;20512;-46
2022/06/08 12:32:09;;;;;;;3.97;1.30;;;21.60;99.90;;;;;;5072737;28;20475;-47
2022/06/08 12:34:38;;;;;;;1.90;1.60;;;21.60;99.90;;;;;;5072488;28;20495;-47
2022/06/08 12:37:24;;;;;;;2.60;1.20;;;21.60;99.90;;;;;;5072888;28;20452;-47
2022/06/08 12:39:52;;;;;;;3.20;1.60;;;21.70;99.90;;;;;;5072630;28;20537;-46
2022/06/08 12:42:27;;;;;;;3.23;1.67;;;21.70;99.90;;;;;;5071534;28;20480;-47
2022/06/08 12:44:55;;;;;;;2.60;1.20;;;21.70;99.90;;;;;;5072812;28;20499;-46
2022/06/08 12:47:26;;;;;;;3.70;1.30;;;21.70;99.90;;;;;;5072593;28;20643;-46
2022/06/08 12:49:59;;;;;;;2.23;1.10;;;21.70;99.90;;;;;;5071773;28;20527;-46
2022/06/08 12:52:29;;;;;;;2.30;1.50;;;21.70;99.90;;;;;;5072123;28;20506;-46
2022/06/08 12:54:56;;;;;;;3.37;1.23;;;21.70;99.90;;;;;;5072297;28;20468;-46
2022/06/08 12:57:28;;;;;;;2.30;1.17;;;21.80;99.90;;;;;;5072085;28;20995;-46
2022/06/08 12:59:56;;;;;;;2.73;1.67;;;21.80;99.90;;;;;;5072183;28;20687;-42
2022/06/08 13:02:29;;;;;;;4.07;1.10;;;21.80;99.90;;;;;;5072202;28;20538;-47
2022/06/08 13:04:57;;;;;;;1.73;1.37;;;21.80;99.90;;;;;;5071883;28;20492;-47
2022/06/08 13:07:27;;;;;;;1.50;0.97;;;21.90;99.90;;;;;;5071923;28;21015;-46
2022/06/08 13:09:54;;;;;;;1.30;0.80;;;22.00;99.90;;;;;;5071949;28;20444;-48
2022/06/08 13:12:25;;;;;;;2.90;1.40;;;22.00;99.90;;;;;;5071973;28;20448;-46
2022/06/08 13:14:53;;;;;;;2.30;1.03;;;22.00;99.90;;;;;;5071522;28;20468;-47
2022/06/08 13:17:20;;;;;;;2.40;1.30;;;22.00;99.90;;;;;;5071893;28;20814;-47
2022/06/08 13:19:48;;;;;;;1.50;1.00;;;22.00;99.90;;;;;;5071473;28;20480;-47
2022/06/08 13:22:15;;;;;;;2.30;0.90;;;22.10;99.90;;;;;;5071724;28;20444;-46